TAF KTXK
KTXK 090532Z 0906/1006 13006KT P6SM BKN250 FM090900 16009KT P6SM OVC015 FM091500 19011G19KT P6SM BKN010 FM091900 22015G21KT P6SM SCT015 FM092200 22012G18KT P6SM SCT025 FM100000 17007KT P6SM BKN250=
METAR KTXK
WC KTXK
WS KTXK
WV KTXK